Albany, KY (42602)

9:33 AM CDT on October 23, 2014 (GMT -0500)
KTNALLON2 | Change Station
CLOSE
Current Station
Personal Weather Station
Location: Allons, TN
Elevation: 663 ft
Nearby Weather Stations

Elev 663 ft 36.58 °N, 85.34 °W | Updated 14 minutes ago

Mostly Cloudy
Mostly Cloudy
49.6 °F
Feels Like 50 °F
N
0.0
Wind Variable Wind from East

Today
High -- | Low -- °F
--% Chance of Precip.
Yesterday
High -- | Low -- °F
Precip. -- in
6:55 AM 5:53 PM
Waning Crescent, 0% visible
Pressure 30.25 in
Visibility 10.0 miles
Clouds Overcast 2300 ft
Windchill 50 °F
Dew Point 47 °F
Humidity 89%
Rainfall 0.00 in
Snow Depth Not available.
UV 1 out of 12
Pollen 1.10 out of 12
Air Quality Not available.
Flu Activity Sporadic
METAR KSME 231355Z AUTO 10007KT 10SM OVC023 08/03 A3025 RMK AO2

More Conditions Fewer Conditions

Pressure 30.25 in
Visibility 10.0 miles
Clouds Overcast 2300 ft
Windchill 50 °F
Dew Point 47 °F
Humidity 89%
Rainfall 0.00 in
Snow Depth Not available.
UV 1 out of 12
Pollen 1.10 out of 12
Air Quality Not available.
Flu Activity Sporadic
METAR KSME 231355Z AUTO 10007KT 10SM OVC023 08/03 A3025 RMK AO2

More Conditions Fewer Conditions

10-Day Weather Forecast

Almanac

Astronomy

Oct. 23, 2014 Rise Set
Actual Time 6:55 AM CDT 5:53 PM CDT
Civil Twilight 6:29 AM CDT 6:20 PM CDT
Nautical Twilight 5:58 AM CDT 6:50 PM CDT
Astronomical Twilight 5:28 AM CDT 7:20 PM CDT
Moon 6:35 AM CDT 5:55 PM CDT
Length of Visible Light 11h 51m
Length of Day
10h 58m
Tomorrow will be 2m 10s shorter.
Waning Crescent, 0% of the Moon is Illuminated
Today
Waning Crescent
Oct 23
New
Oct 30
First Quarter
Nov 6
Full
Nov 14
Last Quarter

Today's Extremes

State Highs State Lows

Community

WunderPhotos

Upload Photos

1,764,268 photos uploaded!

WunderBlogs® & News

Nearby

Snow Depth

Station Depth Elevation
No new snow has been reported.

Earthquake Activity

City Distance Mag. Time & Date
No recent earthquake activity has been reported nearby.
Minimum magnitude displayed is 2.5.

Coastal Water Temperatures

Place Temperature
No Stations Reporting

Nearby Weather Stations